createdAt,value
2022-10-23T00:03:31.137Z,14.30
2022-10-23T00:08:39.081Z,15.00
2022-10-23T00:13:47.045Z,19.70
2022-10-23T00:18:54.576Z,18.90
2022-10-23T00:24:01.844Z,21.60
2022-10-23T00:29:09.530Z,19.90
2022-10-23T00:34:17.604Z,20.20
2022-10-23T00:39:24.938Z,17.80
2022-10-23T00:45:14.856Z,20.30
2022-10-23T00:50:25.335Z,21.40
2022-10-23T00:55:34.284Z,22.20
2022-10-23T01:00:48.573Z,26.90
2022-10-23T01:06:02.520Z,22.90
2022-10-23T01:11:17.010Z,28.10
2022-10-23T01:16:29.589Z,29.00
2022-10-23T01:21:47.020Z,27.40
2022-10-23T01:27:19.458Z,29.80
2022-10-23T01:32:33.415Z,31.10
2022-10-23T01:37:44.672Z,27.50
2022-10-23T01:48:05.544Z,37.30
2022-10-23T01:53:13.776Z,28.70
2022-10-23T01:58:23.590Z,33.30
2022-10-23T02:03:33.382Z,25.80
2022-10-23T02:08:41.176Z,29.90
2022-10-23T02:13:53.355Z,28.60
2022-10-23T02:19:09.779Z,26.10
2022-10-23T02:24:19.024Z,26.30
2022-10-23T02:29:31.032Z,27.40
2022-10-23T02:34:39.841Z,26.70
2022-10-23T02:39:49.723Z,25.90
2022-10-23T02:45:07.642Z,24.70
2022-10-23T02:50:27.458Z,22.90
2022-10-23T02:55:45.663Z,23.60
2022-10-23T03:00:57.916Z,19.30
2022-10-23T03:06:05.842Z,21.00
2022-10-23T03:11:14.146Z,20.30
2022-10-23T03:16:21.624Z,22.60
2022-10-23T03:26:38.801Z,22.30
2022-10-23T03:31:46.494Z,20.90
2022-10-23T03:36:53.919Z,21.00
2022-10-23T03:42:01.757Z,25.20
2022-10-23T03:47:12.117Z,23.60
2022-10-23T03:52:19.723Z,21.50
2022-10-23T03:57:26.977Z,21.00
2022-10-23T04:02:34.456Z,19.70
2022-10-23T04:07:42.591Z,21.70
2022-10-23T04:12:51.039Z,23.60
2022-10-23T04:17:58.377Z,23.30
2022-10-23T04:23:05.991Z,20.00
2022-10-23T04:28:14.836Z,21.40
2022-10-23T04:33:22.427Z,23.90
2022-10-23T04:38:31.867Z,19.10
2022-10-23T04:43:40.958Z,20.70
2022-10-23T04:48:48.357Z,23.20
2022-10-23T04:54:04.372Z,17.70
2022-10-23T04:59:37.946Z,19.80
2022-10-23T05:04:45.933Z,19.00
2022-10-23T05:10:13.077Z,19.80
2022-10-23T05:15:29.038Z,18.30
2022-10-23T05:20:38.853Z,20.60
2022-10-23T05:25:48.987Z,20.40
2022-10-23T05:30:59.606Z,24.80
2022-10-23T05:36:10.858Z,18.90
2022-10-23T05:41:18.607Z,21.60
2022-10-23T05:46:28.309Z,19.30
2022-10-23T05:51:58.829Z,21.80
2022-10-23T06:02:25.473Z,18.10
2022-10-23T06:07:42.619Z,20.30
2022-10-23T06:12:50.327Z,18.60
2022-10-23T06:17:58.149Z,19.70
2022-10-23T06:23:05.781Z,20.30
2022-10-23T06:28:46.036Z,20.20
2022-10-23T06:33:53.237Z,20.90
2022-10-23T06:44:37.840Z,21.50
2022-10-23T06:49:50.495Z,21.00
2022-10-23T06:54:57.437Z,26.60
2022-10-23T07:00:11.675Z,21.00
2022-10-23T07:05:45.645Z,24.60
2022-10-23T07:10:53.494Z,20.10
2022-10-23T07:16:01.209Z,20.70
2022-10-23T07:21:09.674Z,26.80
2022-10-23T07:26:18.473Z,22.50
2022-10-23T07:31:28.206Z,27.70
2022-10-23T07:36:55.119Z,22.70
2022-10-23T07:42:03.020Z,22.80
2022-10-23T07:47:10.599Z,24.70
2022-10-23T07:52:19.378Z,24.20
2022-10-23T07:57:45.712Z,22.20
2022-10-23T08:03:13.140Z,27.60
2022-10-23T08:08:20.994Z,22.30
2022-10-23T08:13:28.622Z,25.00
2022-10-23T08:18:41.442Z,22.90
2022-10-23T08:23:48.876Z,24.00
2022-10-23T08:28:57.299Z,25.90
2022-10-23T08:34:05.026Z,28.00
2022-10-23T08:39:13.239Z,22.30
2022-10-23T08:44:34.518Z,22.00
2022-10-23T08:49:49.625Z,29.70
2022-10-23T08:55:15.750Z,25.80
2022-10-23T09:00:23.391Z,21.10
2022-10-23T09:05:34.109Z,20.20
2022-10-23T09:11:01.202Z,22.50
2022-10-23T09:16:16.655Z,25.60
2022-10-23T09:21:26.869Z,20.90
2022-10-23T09:26:34.794Z,22.80
2022-10-23T09:31:52.603Z,21.50
2022-10-23T09:37:03.532Z,21.10
2022-10-23T09:42:26.555Z,24.50
2022-10-23T09:47:33.872Z,8.70
2022-10-23T09:52:42.648Z,19.00
2022-10-23T09:57:51.247Z,23.10
2022-10-23T10:03:02.759Z,20.30
2022-10-23T10:08:24.592Z,19.10
2022-10-23T10:13:48.483Z,17.90
2022-10-23T10:19:05.652Z,18.40
2022-10-23T10:24:20.549Z,16.50
2022-10-23T10:29:41.730Z,20.90
2022-10-23T10:34:57.123Z,18.00
2022-10-23T10:40:11.095Z,13.70
2022-10-23T10:45:33.056Z,17.70
2022-10-23T10:50:49.436Z,12.30
2022-10-23T10:56:03.719Z,13.20
2022-10-23T11:01:18.374Z,14.00
2022-10-23T11:06:30.291Z,9.90
2022-10-23T11:11:42.056Z,11.80
2022-10-23T11:16:53.993Z,8.80
2022-10-23T11:22:07.328Z,7.90
2022-10-23T11:27:29.768Z,8.10
2022-10-23T11:32:59.561Z,10.20
2022-10-23T11:38:17.900Z,9.40
2022-10-23T11:43:33.888Z,14.10
2022-10-23T11:48:43.213Z,10.70
2022-10-23T11:53:51.056Z,9.90
2022-10-23T11:59:00.412Z,13.00
2022-10-23T12:04:19.569Z,12.50
2022-10-23T12:09:34.244Z,11.10
2022-10-23T12:14:43.866Z,14.30
2022-10-23T12:19:53.090Z,13.40
2022-10-23T12:25:07.758Z,14.90
2022-10-23T12:30:25.109Z,15.50
2022-10-23T12:36:02.565Z,12.40
2022-10-23T12:41:15.965Z,15.30
2022-10-23T12:46:33.517Z,16.90
2022-10-23T12:51:40.645Z,11.80
2022-10-23T12:56:48.516Z,13.40
2022-10-23T13:01:56.755Z,14.50
2022-10-23T13:07:05.524Z,15.90
2022-10-23T13:12:22.848Z,13.40
2022-10-23T13:17:41.079Z,17.30
2022-10-23T13:22:49.492Z,13.70
2022-10-23T13:28:22.958Z,14.70
2022-10-23T13:33:36.173Z,12.50
2022-10-23T13:38:45.460Z,14.70
2022-10-23T13:43:53.116Z,14.40
2022-10-23T13:49:00.443Z,13.90
2022-10-23T13:54:08.183Z,14.40
2022-10-23T13:59:16.017Z,13.00
2022-10-23T14:04:24.320Z,17.60
2022-10-23T14:09:31.966Z,13.80
2022-10-23T14:14:39.208Z,19.10
2022-10-23T14:19:46.766Z,15.80
2022-10-23T14:24:54.316Z,16.40
2022-10-23T14:30:01.498Z,12.90
2022-10-23T14:35:10.345Z,14.10
2022-10-23T14:40:18.037Z,12.20
2022-10-23T14:45:25.723Z,17.00
2022-10-23T14:50:33.855Z,15.70
2022-10-23T14:55:41.599Z,14.50
2022-10-23T15:00:58.807Z,15.80
2022-10-23T15:06:08.105Z,13.50
2022-10-23T15:11:15.444Z,13.40
2022-10-23T15:16:23.553Z,13.30
2022-10-23T15:21:30.762Z,13.90
2022-10-23T15:26:38.983Z,10.60
2022-10-23T15:31:48.368Z,15.60
2022-10-23T15:36:57.451Z,13.30
2022-10-23T15:42:06.781Z,12.70
2022-10-23T15:47:13.976Z,17.50
2022-10-23T15:52:21.337Z,13.10
2022-10-23T15:57:28.764Z,12.40
2022-10-23T16:02:36.722Z,13.60
2022-10-23T16:07:44.055Z,14.10
2022-10-23T16:12:51.199Z,14.20
2022-10-23T16:17:58.501Z,11.90
2022-10-23T16:23:05.652Z,15.30
2022-10-23T16:28:12.979Z,15.80
2022-10-23T16:33:20.420Z,11.90
2022-10-23T16:38:28.918Z,13.20
2022-10-23T16:43:36.174Z,12.90
2022-10-23T16:48:51.540Z,12.30
2022-10-23T16:53:59.489Z,12.20
2022-10-23T16:59:06.805Z,11.70
2022-10-23T17:04:13.999Z,11.10
2022-10-23T17:09:22.128Z,10.50
2022-10-23T17:14:30.924Z,11.40
2022-10-23T17:19:46.221Z,11.60
2022-10-23T17:24:54.523Z,10.90
2022-10-23T17:30:02.008Z,13.00
2022-10-23T17:35:11.127Z,12.50
2022-10-23T17:40:22.774Z,13.00
2022-10-23T17:45:34.542Z,13.60
2022-10-23T17:50:42.272Z,16.70
2022-10-23T17:55:49.413Z,16.50
2022-10-23T18:00:56.595Z,16.60
2022-10-23T18:06:10.528Z,16.20
2022-10-23T18:11:21.695Z,13.70
2022-10-23T18:16:29.405Z,17.80
2022-10-23T18:21:38.291Z,14.10
2022-10-23T18:26:46.536Z,14.10
2022-10-23T18:31:53.812Z,14.10
2022-10-23T18:37:01.294Z,16.60
2022-10-23T18:42:08.604Z,17.00
2022-10-23T18:52:28.268Z,15.40
2022-10-23T18:57:35.769Z,14.80
2022-10-23T19:02:43.156Z,16.40
2022-10-23T19:07:51.897Z,16.80
2022-10-23T19:12:59.520Z,17.50
2022-10-23T19:18:07.800Z,18.00
2022-10-23T19:23:16.031Z,19.20
2022-10-23T19:28:23.720Z,18.00
2022-10-23T19:33:31.120Z,15.90
2022-10-23T19:38:40.661Z,17.10
2022-10-23T19:43:48.140Z,20.00
2022-10-23T19:48:55.523Z,16.20
2022-10-23T19:54:03.140Z,16.40
2022-10-23T19:59:13.488Z,15.20
2022-10-23T20:04:21.055Z,11.50
2022-10-23T20:09:28.344Z,13.10
2022-10-23T20:14:36.273Z,12.40
2022-10-23T20:19:45.091Z,20.90
2022-10-23T20:24:53.269Z,14.10
2022-10-23T20:30:00.405Z,22.00
2022-10-23T20:35:09.367Z,37.30
2022-10-23T20:40:17.155Z,22.30
2022-10-23T20:45:24.346Z,15.50
2022-10-23T20:50:32.346Z,13.00
2022-10-23T20:55:44.433Z,11.30
2022-10-23T21:06:03.980Z,14.10
2022-10-23T21:11:15.135Z,11.10
2022-10-23T21:16:28.446Z,11.60
2022-10-23T21:21:37.634Z,12.40
2022-10-23T21:26:45.568Z,13.90
2022-10-23T21:31:57.397Z,12.30
2022-10-23T21:37:14.448Z,13.30
2022-10-23T21:42:22.438Z,15.50
2022-10-23T21:47:29.912Z,13.10
2022-10-23T21:52:37.764Z,12.10
2022-10-23T21:57:45.763Z,12.10
2022-10-23T22:02:53.519Z,12.50
2022-10-23T22:08:00.792Z,12.00
2022-10-23T22:13:08.199Z,11.00
2022-10-23T22:18:15.825Z,11.90
2022-10-23T22:23:23.109Z,13.40
2022-10-23T22:28:30.360Z,12.10
2022-10-23T22:33:37.709Z,12.20
2022-10-23T22:38:46.035Z,12.80
2022-10-23T22:43:57.980Z,12.40
2022-10-23T22:54:17.922Z,14.20
2022-10-23T22:59:25.184Z,11.50
2022-10-23T23:04:37.946Z,12.50
2022-10-23T23:09:47.683Z,10.60
2022-10-23T23:14:54.725Z,12.10
2022-10-23T23:20:02.124Z,11.90
2022-10-23T23:25:10.771Z,11.50
2022-10-23T23:30:18.080Z,10.60
2022-10-23T23:35:25.953Z,11.70
2022-10-23T23:40:33.329Z,11.10
2022-10-23T23:45:40.440Z,13.70
2022-10-23T23:50:47.703Z,12.90
2022-10-23T23:55:54.966Z,14.30
